Time;durP1;ratioP1;P1;durP2;ratioP2;P2;SDS_P1;SDS_P2;PMS_P1;PMS_P2;Temp;Humidity;BMP_temperature;BMP_pressure;BME280_temperature;BME280_humidity;BME280_pressure;Samples;Min_cycle;Max_cycle;Signal;HPM_P1;HPM_P2
2022/02/12 00:00:24;;;;;;;33.35;8.75;;;;;;;0.88;88.97;103237.44;5033174;28;20368;-49
2022/02/12 00:02:52;;;;;;;24.67;7.72;;;;;;;0.85;88.63;103231.41;5033461;28;20026;-47
2022/02/12 00:05:18;;;;;;;34.05;8.32;;;;;;;0.87;88.57;103235.72;5033459;28;20112;-47
2022/02/12 00:07:44;;;;;;;30.92;8.45;;;;;;;0.85;88.32;103226.94;5033527;28;20395;-46
2022/02/12 00:10:09;;;;;;;38.72;9.13;;;;;;;0.84;87.84;103229.66;5033170;28;20033;-46
2022/02/12 00:12:35;;;;;;;28.15;8.80;;;;;;;0.81;86.94;103220.03;5032852;28;20125;-46
2022/02/12 00:15:00;;;;;;;39.90;8.82;;;;;;;0.73;87.52;103218.59;5033095;28;20079;-49
2022/02/12 00:17:26;;;;;;;24.63;7.40;;;;;;;0.69;88.16;103219.66;5032731;28;20088;-48
2022/02/12 00:19:51;;;;;;;26.10;7.72;;;;;;;0.72;89.32;103211.59;5031882;28;20027;-48
2022/02/12 00:22:17;;;;;;;36.00;8.82;;;;;;;0.71;89.27;103212.50;5032022;28;20030;-49
2022/02/12 00:24:42;;;;;;;39.88;8.25;;;;;;;0.72;88.82;103214.25;5032802;28;20033;-47
2022/02/12 00:27:08;;;;;;;28.95;7.22;;;;;;;0.72;88.93;103208.94;5032731;28;20061;-47
2022/02/12 00:29:34;;;;;;;27.75;7.18;;;;;;;0.74;88.86;103207.06;5032707;28;20120;-47
2022/02/12 00:31:59;;;;;;;26.15;6.85;;;;;;;0.74;88.52;103207.06;5032876;28;20413;-47
2022/02/12 00:34:24;;;;;;;24.70;7.13;;;;;;;0.77;89.69;103199.03;5032728;28;20080;-46
2022/02/12 00:36:50;;;;;;;23.85;5.75;;;;;;;0.81;89.60;103192.66;5032465;28;20017;-47
2022/02/12 00:39:15;;;;;;;26.23;6.68;;;;;;;0.82;88.92;103187.31;5032500;28;20330;-47
2022/02/12 00:41:41;;;;;;;38.50;6.80;;;;;;;0.85;89.26;103199.59;5032715;28;20403;-47
2022/02/12 00:44:06;;;;;;;30.60;6.28;;;;;;;0.85;88.95;103197.78;5032005;28;20033;-49
2022/02/12 00:46:31;;;;;;;23.95;5.85;;;;;;;0.91;89.56;103191.38;5032608;28;20018;-49
2022/02/12 00:48:57;;;;;;;24.38;5.75;;;;;;;0.94;89.19;103178.00;5032351;28;20040;-46
2022/02/12 00:51:22;;;;;;;29.70;5.97;;;;;;;0.97;88.97;103185.81;5032407;28;20033;-48
2022/02/12 00:53:48;;;;;;;27.65;5.85;;;;;;;1.05;88.86;103186.41;5032537;28;20076;-47
2022/02/12 00:56:13;;;;;;;32.88;6.45;;;;;;;1.08;88.02;103180.09;5032428;28;20488;-48
2022/02/12 00:58:39;;;;;;;21.50;4.85;;;;;;;1.11;88.60;103190.59;5031876;28;20037;-47
2022/02/12 01:01:04;;;;;;;30.67;5.45;;;;;;;1.15;88.09;103178.03;5032225;28;20029;-48
2022/02/12 01:03:30;;;;;;;25.95;5.45;;;;;;;1.15;87.28;103172.75;5032209;28;20029;-46
2022/02/12 01:05:55;;;;;;;23.77;4.88;;;;;;;1.19;87.64;103166.41;5032134;28;20021;-46
2022/02/12 01:08:20;;;;;;;25.45;4.50;;;;;;;1.22;87.57;103161.81;5032347;28;20040;-49
2022/02/12 01:10:46;;;;;;;20.35;3.42;;;;;;;1.24;87.28;103164.41;5031842;28;20029;-46
2022/02/12 01:13:11;;;;;;;41.97;4.55;;;;;;;1.22;86.78;103160.97;5032011;28;20149;-48
2022/02/12 01:15:36;;;;;;;23.63;3.88;;;;;;;1.24;87.03;103159.97;5032007;28;20099;-48
2022/02/12 01:18:03;;;;;;;17.88;4.05;;;;;;;1.28;87.43;103166.00;5032227;28;20069;-47
2022/02/12 01:20:28;;;;;;;18.25;3.97;;;;;;;1.30;87.39;103149.09;5031361;28;20033;-47
2022/02/12 01:22:54;;;;;;;28.35;4.22;;;;;;;1.34;87.30;103148.94;5031953;28;20032;-47
2022/02/12 01:25:20;;;;;;;21.65;3.88;;;;;;;1.34;86.59;103144.50;5031561;28;20410;-47
2022/02/12 01:27:45;;;;;;;13.60;3.15;;;;;;;1.35;86.18;103142.75;5031769;28;20034;-48
2022/02/12 01:30:11;;;;;;;38.88;4.70;;;;;;;1.30;86.25;103153.53;5031582;28;20051;-47
2022/02/12 01:32:37;;;;;;;29.63;3.78;;;;;;;1.33;86.71;103153.41;5031804;28;20033;-47
2022/02/12 01:35:03;;;;;;;23.85;3.85;;;;;;;1.31;86.26;103152.59;5031412;28;20036;-47
2022/02/12 01:37:28;;;;;;;17.75;3.72;;;;;;;1.36;86.69;103153.25;5031531;28;20025;-48
2022/02/12 01:39:53;;;;;;;28.35;4.60;;;;;;;1.37;85.67;103157.66;5030506;28;20049;-47
2022/02/12 01:42:19;;;;;;;19.25;3.40;;;;;;;1.39;85.59;103153.13;5031629;28;20060;-47
2022/02/12 01:44:45;;;;;;;19.27;3.72;;;;;;;1.39;85.46;103147.81;5030386;28;20068;-48
2022/02/12 01:47:11;;;;;;;24.83;3.50;;;;;;;1.38;85.27;103155.88;5031461;28;20486;-47
2022/02/12 01:49:37;;;;;;;16.17;3.60;;;;;;;1.39;85.10;103150.47;5031826;28;20041;-47
2022/02/12 01:52:06;;;;;;;19.40;4.43;;;;;;;1.42;85.17;103146.81;5031657;28;20025;-48
2022/02/12 01:54:32;;;;;;;25.70;3.53;;;;;;;1.42;84.63;103138.88;5031540;28;20060;-47
2022/02/12 01:56:59;;;;;;;19.63;4.35;;;;;;;1.47;85.27;103140.38;5031387;28;20025;-49
2022/02/12 01:59:25;;;;;;;14.65;3.45;;;;;;;1.57;85.45;103140.88;5031266;28;20142;-46
2022/02/12 02:01:50;;;;;;;25.25;3.83;;;;;;;1.52;84.32;103135.75;5031887;28;20033;-46
2022/02/12 02:04:16;;;;;;;34.63;5.03;;;;;;;1.54;84.66;103131.25;5031515;28;20411;-46
2022/02/12 02:06:43;;;;;;;20.83;3.42;;;;;;;1.53;83.63;103123.38;5031309;28;20036;-46
2022/02/12 02:09:09;;;;;;;23.15;2.97;;;;;;;1.52;84.23;103114.53;5031735;28;20468;-47
2022/02/12 02:11:35;;;;;;;18.33;3.35;;;;;;;1.50;83.70;103108.44;5031296;28;20034;-48
2022/02/12 02:14:01;;;;;;;24.08;3.63;;;;;;;1.45;83.70;103099.81;5031402;28;20427;-46
2022/02/12 02:16:26;;;;;;;16.25;3.58;;;;;;;1.44;84.14;103108.69;5031422;28;20038;-47
2022/02/12 02:18:51;;;;;;;19.73;3.58;;;;;;;1.48;83.65;103099.69;5037888;28;20104;-46
2022/02/12 02:21:17;;;;;;;18.65;3.45;;;;;;;1.47;83.37;103102.38;5031790;28;20025;-47
2022/02/12 02:23:43;;;;;;;17.38;3.55;;;;;;;1.45;83.41;103097.16;5031633;28;20080;-47
2022/02/12 02:26:09;;;;;;;15.73;3.97;;;;;;;1.43;83.01;103101.66;5031072;28;20400;-49
2022/02/12 02:28:35;;;;;;;22.17;5.03;;;;;;;1.40;82.72;103101.81;5031428;28;20044;-48
2022/02/12 02:31:01;;;;;;;19.38;3.75;;;;;;;1.35;82.73;103093.19;5031117;28;20037;-47
2022/02/12 02:33:26;;;;;;;27.15;3.83;;;;;;;1.34;82.74;103091.44;5029236;28;20026;-46
2022/02/12 02:35:51;;;;;;;17.10;3.33;;;;;;;1.36;82.45;103083.44;5026083;28;20029;-48
2022/02/12 02:38:17;;;;;;;18.58;3.65;;;;;;;1.39;82.44;103072.69;5031180;28;20132;-49
2022/02/12 02:40:44;;;;;;;19.17;4.00;;;;;;;1.43;81.80;103067.19;5032079;28;20075;-46
2022/02/12 02:43:10;;;;;;;16.27;3.67;;;;;;;1.44;81.69;103066.22;5034508;28;20037;-47
2022/02/12 02:45:36;;;;;;;22.27;3.92;;;;;;;1.46;81.87;103067.03;5032222;28;20100;-47
2022/02/12 02:48:03;;;;;;;16.27;3.70;;;;;;;1.51;81.20;103066.84;5035056;28;20044;-46
2022/02/12 02:56:00;;;;;;;16.48;3.55;;;;;;;1.48;81.70;103073.13;5025379;28;20040;-47
2022/02/12 02:58:26;;;;;;;;;;;;;;;1.48;81.26;103057.22;5035241;28;20037;-45
2022/02/12 03:00:52;;;;;;;14.82;3.40;;;;;;;1.50;81.41;103070.41;5034725;28;19917;-49
2022/02/12 03:03:17;;;;;;;21.48;4.10;;;;;;;1.47;81.00;103054.63;5034965;28;20476;-47
2022/02/12 03:05:45;;;;;;;32.17;4.43;;;;;;;1.45;81.55;103060.00;5035064;28;20040;-47
2022/02/12 03:08:11;;;;;;;21.02;3.63;;;;;;;1.45;81.75;103054.72;5034539;28;20045;-48
2022/02/12 03:10:36;;;;;;;20.45;3.75;;;;;;;1.49;81.79;103043.00;5031989;28;20514;-50
2022/02/12 03:13:02;;;;;;;16.85;4.13;;;;;;;1.59;81.11;103034.66;5034828;28;20040;-47
2022/02/12 03:15:27;;;;;;;23.02;3.88;;;;;;;1.57;81.03;103033.84;5034518;28;20068;-50
2022/02/12 03:17:52;;;;;;;20.52;3.63;;;;;;;1.61;80.99;103025.69;5034198;28;20026;-47
2022/02/12 03:20:18;;;;;;;20.10;3.45;;;;;;;1.65;80.69;103029.91;5034884;28;20160;-48
2022/02/12 03:22:43;;;;;;;27.08;3.78;;;;;;;1.61;80.78;103024.84;5034442;28;20104;-47
2022/02/12 03:25:09;;;;;;;19.48;4.13;;;;;;;1.57;81.07;103029.41;5034620;28;20123;-47
2022/02/12 03:27:34;;;;;;;19.70;3.90;;;;;;;1.56;80.84;103029.47;5034584;28;20033;-47
2022/02/12 03:30:00;;;;;;;14.35;3.08;;;;;;;1.48;80.32;103025.38;5034549;28;20049;-47
2022/02/12 03:32:26;;;;;;;16.98;3.58;;;;;;;1.48;80.48;103017.41;5034204;28;20029;-48
2022/02/12 03:34:51;;;;;;;25.27;3.50;;;;;;;1.47;80.25;103009.50;5033545;28;20035;-47
2022/02/12 03:37:16;;;;;;;27.17;3.58;;;;;;;1.42;80.61;103004.44;5033852;28;20404;-47
2022/02/12 03:39:41;;;;;;;21.65;4.45;;;;;;;1.44;80.51;103013.16;5034118;28;20037;-49
2022/02/12 03:42:07;;;;;;;23.58;4.93;;;;;;;1.44;80.39;103010.50;5034364;28;20037;-47
2022/02/12 03:44:32;;;;;;;26.27;4.55;;;;;;;1.40;80.86;103006.28;5034266;28;20034;-47
2022/02/12 03:46:58;;;;;;;16.35;3.70;;;;;;;1.37;80.91;103009.09;5034010;28;20036;-49
2022/02/12 03:49:23;;;;;;;31.98;3.97;;;;;;;1.41;80.46;103000.03;5033767;28;20061;-46
2022/02/12 03:51:48;;;;;;;21.70;4.10;;;;;;;1.37;80.71;103000.25;5034106;28;20022;-47
2022/02/12 03:54:14;;;;;;;21.98;4.25;;;;;;;1.38;80.91;102996.69;5034009;28;20431;-48
2022/02/12 03:56:39;;;;;;;24.52;4.47;;;;;;;1.41;80.96;102994.72;5033701;28;20033;-48
2022/02/12 03:59:04;;;;;;;21.88;4.95;;;;;;;1.43;80.12;102987.56;5032099;28;20079;-46
2022/02/12 04:01:30;;;;;;;28.00;4.95;;;;;;;1.40;80.28;102990.38;5033479;28;20029;-46
2022/02/12 04:03:56;;;;;;;26.52;5.22;;;;;;;1.37;80.74;102979.00;5033654;28;20029;-51
2022/02/12 04:06:21;;;;;;;19.38;4.38;;;;;;;1.35;80.33;102976.44;5033330;28;20037;-49
2022/02/12 04:08:46;;;;;;;19.83;4.97;;;;;;;1.34;80.97;102977.38;5033849;28;20029;-47
2022/02/12 04:11:12;;;;;;;19.50;4.40;;;;;;;1.27;81.37;102978.59;5032289;28;20053;-51
2022/02/12 04:13:37;;;;;;;19.73;4.40;;;;;;;1.24;81.95;102984.91;5033775;28;20493;-48
2022/02/12 04:16:03;;;;;;;20.73;4.30;;;;;;;1.22;81.95;102978.78;5033153;28;20021;-48
2022/02/12 04:18:29;;;;;;;20.45;4.40;;;;;;;1.20;81.60;102966.53;5033598;28;20040;-47
2022/02/12 04:20:54;;;;;;;14.65;4.45;;;;;;;1.15;81.49;102972.03;5033536;28;20029;-47
2022/02/12 04:23:19;;;;;;;18.75;5.22;;;;;;;1.13;82.09;102971.22;5033279;28;20060;-47
2022/02/12 04:25:45;;;;;;;21.98;4.75;;;;;;;1.13;81.83;102971.22;5032822;28;20029;-47
2022/02/12 04:28:11;;;;;;;22.65;5.07;;;;;;;1.13;82.20;102959.75;5032954;28;20040;-47
2022/02/12 04:30:37;;;;;;;22.48;4.60;;;;;;;1.26;81.79;102961.81;5033178;28;20033;-48
2022/02/12 04:33:03;;;;;;;19.85;4.72;;;;;;;1.17;81.76;102950.75;5032871;28;20116;-48
2022/02/12 04:35:28;;;;;;;23.40;4.70;;;;;;;1.22;81.53;102948.75;5032815;28;20033;-48
2022/02/12 04:37:53;;;;;;;25.88;4.72;;;;;;;1.17;81.75;102945.44;5032712;28;20053;-49
2022/02/12 04:40:19;;;;;;;24.92;5.10;;;;;;;1.13;82.33;102938.53;5033018;28;20029;-48
2022/02/12 04:42:44;;;;;;;27.92;5.15;;;;;;;1.13;81.99;102934.09;5033302;28;20025;-45
2022/02/12 04:45:09;;;;;;;29.15;5.10;;;;;;;1.06;82.37;102927.38;5031471;28;20059;-46
2022/02/12 04:47:36;;;;;;;32.05;6.28;;;;;;;1.08;82.23;102929.03;5032173;28;20029;-46
2022/02/12 04:50:03;;;;;;;24.80;5.25;;;;;;;1.14;82.13;102929.69;5032495;28;20037;-47
2022/02/12 04:52:28;;;;;;;19.90;5.18;;;;;;;1.15;81.87;102921.63;5032444;28;20029;-47
2022/02/12 04:54:54;;;;;;;26.70;5.10;;;;;;;1.12;82.44;102915.63;5032738;28;20029;-45
2022/02/12 04:57:19;;;;;;;25.17;5.38;;;;;;;1.15;82.26;102907.53;5032258;28;20388;-46
2022/02/12 04:59:44;;;;;;;34.55;5.78;;;;;;;1.10;82.68;102913.03;5032351;28;20021;-49
2022/02/12 05:02:10;;;;;;;21.70;5.85;;;;;;;1.10;82.47;102900.63;5032208;28;20104;-47
2022/02/12 05:04:35;;;;;;;36.97;6.20;;;;;;;1.14;82.47;102909.31;5032095;28;20053;-48
2022/02/12 05:07:01;;;;;;;18.98;5.88;;;;;;;1.11;82.47;102906.81;5032635;28;20030;-50
2022/02/12 05:09:26;;;;;;;32.35;5.80;;;;;;;1.12;82.83;102905.88;5031123;28;20435;-47
2022/02/12 05:11:52;;;;;;;19.85;5.05;;;;;;;1.18;82.57;102907.38;5031862;28;20044;-47
2022/02/12 05:14:18;;;;;;;20.98;5.68;;;;;;;1.16;82.17;102903.94;5032045;28;20029;-47
2022/02/12 05:16:43;;;;;;;30.75;5.53;;;;;;;1.20;82.38;102903.72;5031642;28;20105;-47
2022/02/12 05:19:09;;;;;;;22.77;5.93;;;;;;;1.18;82.23;102915.34;5032157;28;20079;-47
2022/02/12 05:21:35;;;;;;;34.72;5.93;;;;;;;1.16;82.58;102901.28;5031949;28;20029;-48
2022/02/12 05:24:01;;;;;;;23.95;6.25;;;;;;;1.18;82.12;102900.28;5030266;28;20029;-47
2022/02/12 05:26:29;;;;;;;24.15;6.55;;;;;;;1.20;82.78;102908.19;5029488;28;20434;-48
2022/02/12 05:28:55;;;;;;;28.20;6.07;;;;;;;1.14;82.88;102897.84;5028953;28;20035;-47
2022/02/12 05:31:20;;;;;;;22.88;5.60;;;;;;;1.15;83.04;102900.41;5018220;28;20028;-49
2022/02/12 05:33:46;;;;;;;29.55;5.97;;;;;;;1.18;82.34;102889.66;5029076;28;20029;-47
2022/02/12 05:36:12;;;;;;;45.22;7.10;;;;;;;1.18;82.33;102894.13;5029240;28;20112;-47
2022/02/12 05:38:41;;;;;;;25.65;6.00;;;;;;;1.15;82.54;102900.41;5043937;28;20037;-48
2022/02/12 05:41:07;;;;;;;20.95;6.13;;;;;;;1.20;82.46;102894.91;5029000;28;20125;-47
2022/02/12 05:43:33;;;;;;;29.02;6.13;;;;;;;1.17;82.31;102887.09;5028611;28;20036;-47
2022/02/12 05:45:59;;;;;;;24.75;6.18;;;;;;;1.16;82.35;102891.56;5028845;28;20026;-49
2022/02/12 05:48:24;;;;;;;21.67;6.53;;;;;;;1.16;82.30;102885.34;5029135;28;20047;-48
2022/02/12 05:50:50;;;;;;;19.38;6.40;;;;;;;1.15;82.21;102883.66;5028863;28;20025;-50
2022/02/12 05:53:15;;;;;;;23.75;6.88;;;;;;;1.06;82.38;102885.81;5029116;28;20468;-46
2022/02/12 05:55:40;;;;;;;31.63;7.38;;;;;;;1.01;82.57;102876.34;5028844;28;20389;-46
2022/02/12 05:58:06;;;;;;;34.58;7.72;;;;;;;0.97;82.79;102875.59;5028613;28;20435;-46
2022/02/12 06:00:31;;;;;;;18.92;6.78;;;;;;;0.96;82.99;102873.88;5028947;28;20045;-47
2022/02/12 06:02:58;;;;;;;30.35;7.68;;;;;;;1.01;82.56;102866.59;5028362;28;20083;-47
2022/02/12 06:05:23;;;;;;;20.65;7.28;;;;;;;0.93;82.88;102857.28;5029131;28;20041;-46
2022/02/12 06:07:48;;;;;;;31.13;7.03;;;;;;;0.92;83.18;102863.47;5028670;28;20091;-45
2022/02/12 06:10:14;;;;;;;27.02;8.18;;;;;;;0.91;83.49;102853.81;5029100;28;20025;-46
2022/02/12 06:12:40;;;;;;;32.15;7.82;;;;;;;0.87;83.08;102856.63;5028572;28;20108;-46
2022/02/12 06:15:06;;;;;;;26.65;6.93;;;;;;;0.92;82.99;102845.78;5028542;28;20056;-48
2022/02/12 06:17:31;;;;;;;30.45;7.82;;;;;;;0.96;82.99;102835.91;5028416;28;20473;-46
2022/02/12 06:19:57;;;;;;;26.73;7.60;;;;;;;0.92;83.15;102834.31;5028643;28;20112;-47
2022/02/12 06:22:26;;;;;;;37.60;8.85;;;;;;;0.95;83.08;102824.47;5024300;28;20376;-47
2022/02/12 06:24:51;;;;;;;23.27;7.55;;;;;;;0.93;82.92;102823.66;5025945;28;20030;-47
2022/02/12 06:27:17;;;;;;;29.42;7.85;;;;;;;0.94;83.48;102827.16;5032538;28;20488;-47
2022/02/12 06:29:42;;;;;;;26.77;7.65;;;;;;;0.86;83.02;102822.22;5032277;28;20030;-46
2022/02/12 06:32:07;;;;;;;26.73;7.88;;;;;;;0.86;83.51;102825.72;5025182;28;20447;-45
2022/02/12 06:34:33;;;;;;;17.85;7.68;;;;;;;0.86;83.70;102822.22;5029330;28;20373;-45
2022/02/12 06:36:58;;;;;;;30.88;8.98;;;;;;;0.82;83.19;102818.84;5027586;28;20069;-49
2022/02/12 06:39:23;;;;;;;23.90;7.45;;;;;;;0.85;83.42;102817.84;5029117;28;20057;-47
2022/02/12 06:41:48;;;;;;;28.50;8.32;;;;;;;0.80;83.68;102814.56;5029783;28;20041;-46
2022/02/12 06:44:14;;;;;;;28.70;8.10;;;;;;;0.79;83.66;102818.13;5029090;28;20065;-46
2022/02/12 06:46:39;;;;;;;26.92;8.10;;;;;;;0.88;83.18;102809.75;5029009;28;20064;-47
2022/02/12 06:49:04;;;;;;;34.40;8.60;;;;;;;0.82;83.30;102808.25;5027889;28;20132;-45
2022/02/12 06:51:30;;;;;;;27.58;7.45;;;;;;;0.77;83.51;102804.94;5028047;28;20398;-47
2022/02/12 06:53:55;;;;;;;32.58;9.07;;;;;;;0.80;83.50;102803.94;5031040;28;20472;-48
2022/02/12 06:56:20;;;;;;;30.02;7.90;;;;;;;0.78;83.60;102797.84;5031064;28;20563;-46
2022/02/12 06:58:46;;;;;;;28.60;7.95;;;;;;;0.84;83.62;102801.09;5032646;28;20018;-47
2022/02/12 07:01:11;;;;;;;19.35;7.70;;;;;;;0.87;83.48;102800.94;5031353;28;20487;-49
2022/02/12 07:03:36;;;;;;;27.17;9.73;;;;;;;0.98;83.03;102803.09;5032030;28;20368;-46
2022/02/12 07:06:02;;;;;;;26.88;8.93;;;;;;;1.01;83.03;102802.09;5032235;28;20045;-48
2022/02/12 07:08:27;;;;;;;33.88;9.32;;;;;;;1.03;82.94;102801.09;5032448;28;20033;-47
2022/02/12 07:10:53;;;;;;;30.13;7.93;;;;;;;1.07;82.67;102805.31;5031714;28;20052;-47
2022/02/12 07:13:19;;;;;;;27.75;8.80;;;;;;;1.08;82.64;102809.69;5031819;28;20064;-47
2022/02/12 07:15:44;;;;;;;33.30;8.68;;;;;;;1.10;82.66;102805.16;5032085;28;20053;-47
2022/02/12 07:18:09;;;;;;;29.83;7.88;;;;;;;1.18;82.19;102793.34;5031821;28;20183;-47
2022/02/12 07:20:35;;;;;;;25.10;7.75;;;;;;;1.13;82.65;102790.88;5033988;28;20108;-48
2022/02/12 07:23:00;;;;;;;32.17;8.38;;;;;;;1.16;81.90;102789.88;5030905;28;20053;-47
2022/02/12 07:25:25;;;;;;;26.25;8.60;;;;;;;1.19;82.30;102795.06;5032477;28;20446;-48
2022/02/12 07:27:55;;;;;;;27.23;7.95;;;;;;;1.20;82.10;102786.16;5030796;28;20437;-47
2022/02/12 07:30:22;;;;;;;24.48;7.88;;;;;;;1.24;81.81;102793.91;5032927;28;20041;-48
2022/02/12 07:32:48;;;;;;;26.88;8.32;;;;;;;1.25;81.98;102789.47;5034250;28;20053;-48
2022/02/12 07:35:14;;;;;;;31.02;8.38;;;;;;;1.34;81.27;102789.00;5034002;28;20686;-47
2022/02/12 07:37:41;;;;;;;36.53;10.02;;;;;;;1.36;81.26;102788.94;5034582;28;20104;-49
2022/02/12 07:40:07;;;;;;;31.25;8.10;;;;;;;1.30;81.57;102784.81;5034096;28;20066;-48
2022/02/12 07:42:32;;;;;;;36.83;9.27;;;;;;;1.31;81.47;102782.06;5034128;28;20067;-49
2022/02/12 07:44:57;;;;;;;26.25;9.07;;;;;;;1.21;81.66;102782.56;5034366;28;20029;-49
2022/02/12 07:47:23;;;;;;;34.05;10.07;;;;;;;1.24;81.64;102787.75;5033839;28;20475;-48
2022/02/12 07:49:48;;;;;;;28.80;9.38;;;;;;;1.25;81.86;102795.63;5034283;28;20112;-49
2022/02/12 07:52:14;;;;;;;36.47;9.95;;;;;;;1.34;81.60;102794.31;5033882;28;20041;-48
2022/02/12 07:54:39;;;;;;;30.38;9.75;;;;;;;1.47;81.04;102794.59;5033603;28;20104;-48
2022/02/12 07:57:04;;;;;;;30.20;10.93;;;;;;;1.55;81.10;102787.09;5033629;28;20022;-48
2022/02/12 07:59:30;;;;;;;36.88;9.90;;;;;;;1.82;80.07;102782.22;5033585;28;20033;-47
2022/02/12 08:01:55;;;;;;;26.27;9.10;;;;;;;2.01;78.62;102773.34;5032813;28;20025;-49
2022/02/12 08:04:20;;;;;;;26.55;9.77;;;;;;;2.22;78.17;102772.22;5033568;28;20116;-48
2022/02/12 08:07:31;;;;;;;33.65;9.98;;;;;;;2.50;77.73;102773.41;5032762;28;20026;-47
2022/02/12 08:09:31;;;;;;;36.50;8.90;;;;;;;3.12;76.43;102769.09;5029225;28;20049;-48
2022/02/12 08:12:13;;;;;;;33.40;9.48;;;;;;;3.60;73.44;102774.38;5035585;28;20446;-49
2022/02/12 08:14:39;;;;;;;35.53;10.20;;;;;;;3.80;71.45;102771.41;5024215;28;20403;-51
2022/02/12 08:17:04;;;;;;;31.27;9.60;;;;;;;4.02;71.26;102770.97;5013891;28;20022;-48
2022/02/12 08:19:29;;;;;;;32.92;9.90;;;;;;;4.34;69.87;102777.03;5013876;28;20467;-48
2022/02/12 08:21:55;;;;;;;28.88;9.88;;;;;;;4.68;68.04;102768.75;5014032;28;20037;-48
2022/02/12 08:24:20;;;;;;;32.13;9.20;;;;;;;5.37;66.31;102762.53;5013684;28;20057;-49
2022/02/12 08:26:45;;;;;;;35.72;9.60;;;;;;;5.10;66.04;102761.66;5012438;28;20026;-48
2022/02/12 08:29:11;;;;;;;22.50;8.50;;;;;;;5.44;65.27;102763.81;5013975;28;20072;-48
2022/02/12 08:31:36;;;;;;;32.47;9.55;;;;;;;5.75;64.40;102766.28;5012437;28;20076;-49
2022/02/12 08:34:01;;;;;;;35.63;9.07;;;;;;;5.91;63.29;102773.13;5013534;28;20073;-47
2022/02/12 08:36:27;;;;;;;39.65;9.85;;;;;;;6.28;62.72;102770.66;5013786;28;20041;-48
2022/02/12 08:38:52;;;;;;;28.58;9.05;;;;;;;6.95;61.84;102759.66;5013208;28;20050;-49
2022/02/12 08:41:17;;;;;;;35.50;9.13;;;;;;;6.58;60.15;102756.06;5013474;28;20022;-51
2022/02/12 08:43:43;;;;;;;28.40;8.40;;;;;;;7.32;60.19;102748.06;5012722;28;20034;-48
2022/02/12 08:46:09;;;;;;;26.90;8.88;;;;;;;7.44;58.82;102755.19;5013402;28;20057;-48
2022/02/12 08:48:34;;;;;;;28.05;8.75;;;;;;;8.28;56.60;102740.69;5013133;28;20061;-48
2022/02/12 08:51:00;;;;;;;27.52;8.23;;;;;;;8.23;55.20;102742.03;5013224;28;20029;-48
2022/02/12 08:53:25;;;;;;;35.95;8.45;;;;;;;7.69;57.13;102733.63;5013060;28;20029;-48
2022/02/12 08:55:50;;;;;;;27.20;8.50;;;;;;;7.47;58.11;102723.66;5013202;28;20040;-48
2022/02/12 08:58:16;;;;;;;20.55;7.80;;;;;;;7.73;56.62;102722.66;5013068;28;20026;-50
2022/02/12 09:00:41;;;;;;;32.83;9.15;;;;;;;7.47;57.49;102712.09;5012919;28;20030;-49
2022/02/12 09:03:07;;;;;;;24.98;7.57;;;;;;;7.34;57.56;102704.13;5012909;28;20079;-50
2022/02/12 09:05:32;;;;;;;20.27;8.15;;;;;;;8.48;55.43;102704.28;5012881;28;20040;-47
2022/02/12 09:07:57;;;;;;;30.75;8.35;;;;;;;7.73;56.73;102696.72;5011457;28;20030;-47
2022/02/12 09:10:23;;;;;;;23.98;7.70;;;;;;;8.38;54.09;102697.91;5012778;28;20029;-49
2022/02/12 09:12:48;;;;;;;25.88;8.73;;;;;;;8.49;54.45;102700.59;5012956;28;20554;-48
2022/02/12 09:15:13;;;;;;;33.35;8.55;;;;;;;8.43;54.61;102701.09;5013086;28;20034;-48
2022/02/12 09:17:39;;;;;;;25.70;7.75;;;;;;;8.43;54.64;102695.75;5012982;28;20028;-48
2022/02/12 09:20:04;;;;;;;29.95;8.40;;;;;;;8.52;53.85;102700.34;5012645;28;20356;-49
2022/02/12 09:22:30;;;;;;;31.95;7.88;;;;;;;8.47;54.06;102697.19;5012672;28;20404;-49
2022/02/12 09:24:55;;;;;;;29.77;8.13;;;;;;;7.98;55.52;102694.81;5012598;28;20038;-48
2022/02/12 09:27:20;;;;;;;30.98;7.45;;;;;;;8.29;54.78;102686.09;5012468;28;20476;-48
2022/02/12 09:29:46;;;;;;;25.02;6.93;;;;;;;8.38;54.52;102689.84;5012743;28;20095;-47
2022/02/12 09:32:12;;;;;;;24.10;7.82;;;;;;;7.65;56.04;102699.97;5012566;28;20489;-48
2022/02/12 09:34:38;;;;;;;31.05;8.80;;;;;;;7.69;56.70;102693.41;5012987;28;20030;-47
2022/02/12 09:37:03;;;;;;;27.27;7.72;;;;;;;7.63;56.76;102695.69;5020363;28;20036;-48
2022/02/12 09:39:28;;;;;;;28.25;7.10;;;;;;;7.78;56.60;102685.66;5031503;28;20140;-48
2022/02/12 09:41:55;;;;;;;30.20;7.22;;;;;;;7.93;55.85;102689.81;5031585;28;20149;-49
2022/02/12 09:44:20;;;;;;;24.60;7.40;;;;;;;7.63;56.27;102682.31;5031843;28;20498;-48
2022/02/12 09:47:05;;;;;;;25.80;7.43;;;;;;;7.62;56.72;102681.47;5032057;28;20116;-47
2022/02/12 09:49:30;;;;;;;28.75;6.93;;;;;;;7.62;56.16;102677.94;5032234;28;20052;-49
2022/02/12 09:52:00;;;;;;;26.02;6.68;;;;;;;7.96;55.92;102681.53;5031794;28;20396;-47
2022/02/12 09:54:26;;;;;;;26.15;7.20;;;;;;;7.22;57.10;102681.81;5031469;28;20425;-49
2022/02/12 09:56:51;;;;;;;35.50;6.90;;;;;;;6.50;58.90;102689.78;5035985;28;20104;-47
2022/02/12 09:59:16;;;;;;;33.28;7.18;;;;;;;6.32;59.56;102686.59;5036299;28;20423;-49
2022/02/12 10:01:42;;;;;;;34.88;8.20;;;;;;;5.96;60.86;102671.31;5035870;28;20095;-47
2022/02/12 10:04:16;;;;;;;29.60;7.53;;;;;;;6.31;60.54;102662.63;5036172;28;20108;-50
2022/02/12 10:06:43;;;;;;;28.35;6.93;;;;;;;6.37;60.30;102668.41;5035573;28;20061;-49
2022/02/12 10:09:09;;;;;;;23.98;6.35;;;;;;;6.47;59.32;102654.34;5035552;28;20025;-49
2022/02/12 10:11:47;;;;;;;25.00;6.43;;;;;;;7.04;58.39;102645.69;5035340;28;20104;-49
2022/02/12 10:14:20;;;;;;;27.60;5.93;;;;;;;7.32;57.79;102665.03;5034584;28;20487;-49
2022/02/12 10:17:00;;;;;;;28.35;6.32;;;;;;;7.22;57.75;102657.69;5036009;28;20510;-47
2022/02/12 10:19:30;;;;;;;30.10;6.78;;;;;;;6.99;57.57;102638.00;5035873;28;20125;-47
2022/02/12 10:22:07;;;;;;;22.35;5.82;;;;;;;7.18;58.09;102648.19;5034590;28;20144;-47
2022/02/12 10:24:52;;;;;;;24.00;5.65;;;;;;;7.80;56.23;102651.53;5033951;28;20037;-48
2022/02/12 10:27:19;;;;;;;24.63;5.38;;;;;;;7.44;56.09;102642.69;5036174;28;20040;-48
2022/02/12 10:29:47;;;;;;;18.53;5.10;;;;;;;7.44;56.29;102656.06;5035750;28;20045;-48
2022/02/12 10:33:13;;;;;;;19.52;5.72;;;;;;;7.41;57.24;102649.13;5069648;28;20410;-47
2022/02/12 10:35:40;;;;;;;20.42;4.90;;;;;;;7.28;57.84;102647.50;5055785;28;20395;-48
2022/02/12 10:38:08;;;;;;;23.48;4.80;;;;;;;6.93;56.42;102654.53;5050603;28;20058;-46
2022/02/12 10:40:34;;;;;;;22.88;4.57;;;;;;;6.80;56.17;102638.50;5069043;28;20021;-48
2022/02/12 10:43:00;;;;;;;18.42;4.35;;;;;;;6.88;57.58;102645.13;5069259;28;20028;-48
2022/02/12 10:45:28;;;;;;;16.23;4.85;;;;;;;6.88;56.67;102650.47;5068542;28;20438;-46
2022/02/12 10:47:55;;;;;;;15.82;4.68;;;;;;;6.90;56.67;102643.16;5049691;28;20032;-47
2022/02/12 10:50:21;;;;;;;24.02;4.93;;;;;;;7.06;55.45;102635.72;5048487;28;20100;-48
2022/02/12 10:52:56;;;;;;;19.38;4.85;;;;;;;6.63;56.14;102641.56;5064129;28;20533;-48
2022/02/12 10:55:41;;;;;;;20.13;4.53;;;;;;;7.13;55.89;102639.63;5069539;28;20533;-48
2022/02/12 10:58:12;;;;;;;17.42;4.30;;;;;;;6.81;56.43;102634.00;5062000;28;20039;-47
2022/02/12 11:00:40;;;;;;;20.80;4.00;;;;;;;7.14;55.80;102636.00;5051619;28;20040;-48
2022/02/12 11:03:09;;;;;;;24.95;5.15;;;;;;;6.55;56.65;102618.03;5049388;28;20029;-48
2022/02/12 11:05:35;;;;;;;15.52;4.57;;;;;;;6.56;56.74;102622.44;5048497;28;20028;-47
2022/02/12 11:08:06;;;;;;;18.02;4.43;;;;;;;6.48;56.78;102610.59;5048823;28;20082;-47
2022/02/12 11:10:32;;;;;;;17.67;4.75;;;;;;;6.84;55.83;102611.53;5048872;28;20033;-49
2022/02/12 11:12:58;;;;;;;20.20;4.40;;;;;;;7.03;55.34;102606.50;5048076;28;20075;-49
2022/02/12 11:15:26;;;;;;;25.40;5.07;;;;;;;7.35;55.31;102589.81;5048363;28;20029;-47
2022/02/12 11:17:52;;;;;;;16.50;4.15;;;;;;;7.21;55.43;102590.84;5047342;28;20391;-50
2022/02/12 11:20:21;;;;;;;22.77;5.70;;;;;;;7.08;55.30;102587.41;5046233;28;20037;-49
2022/02/12 11:22:47;;;;;;;21.08;4.60;;;;;;;6.93;54.66;102584.09;5040401;28;20075;-49
2022/02/12 11:25:32;;;;;;;21.35;4.53;;;;;;;7.18;55.01;102573.19;5045223;28;20067;-47